LIRZ

Perugia San Francesco d'Assisi – Umbria International Airport

Perugia, Italy
TAF LIRZ 171700Z 1718/1818 04010KT 9999 SCT040
Issued Valid From Valid To
Nov-17 @ 17:00 UTC
(5 hours ago)
Nov-17 @ 18:00 UTC
(4 hours ago)
Nov-18 @ 18:00 UTC
(in 20 hours)
Nov-17 @ 18:00 to Nov-18 @ 18:00
TAF LIRZ 171700Z 1718/1818 04010KT 9999 SCT040
Wind Visibility Clouds
40° at 10 knots 10,000+ meters
  • Scattered at 4,000' AGL
TAF LIRZ 171700Z 1718/1818 04010KT 9999 SCT040
Issued Nov-17 @ 17:00 UTC
(5 hours ago)
Valid From Nov-17 @ 18:00 UTC
(4 hours ago)
Valid To Nov-18 @ 18:00 UTC
(in 20 hours)
Nov-17 @ 18:00 - Nov-18 @ 18:00
Wind Visibility
40° at 10 knots 10,000+ meters
Clouds
  • Scattered at 4,000' AGL